FUEL PRICES

UGTB

  LT GL KG
JT A-1 0.726 2.74 0.907
TS-1 0.697 2.63 0.871

UGSB

  LT GL KG
JT A-1 0.742 2.8 0.927
TS-1 0.725 2.74 0.906

UGKO

  LT GL KG
JT A-1 N/A N/A N/A
TS-1 0.717 2.71 0.896

UBBB

  LT GL KG
TS-1 0.696 2.63 0.87

UBBG

  LT GL KG
TS-1 0.696 2.63 0.87

UBBN

  LT GL KG
TS-1 0.704 2.66 0.88

UBBL

  LT GL KG
TS-1 0.704 2.66 0.88

UDYZ

  LT GL KG
JT A-1 0.886 3.35 1.108

ACTUAL AVIATION WEATHER

UGTB

METAR text:UGTB 311200Z 19004KT 160V240 CAVOK 20/05 Q1022 R31L/CLRD80 NOSIG
Read More >>>

UGSB

METAR text:UGSB 311200Z 25008KT CAVOK 19/13 Q1023 R13/70D NOSIG
Read More >>>

UGKO

METAR text:UGKO 311200Z 27010KT CAVOK 22/11 Q1020 R07/09//70 NOSIG
Read More >>>

UBBB

METAR text:UBBB 311200Z 19016KT CAVOK 18/13 Q1021 88CLRD70 NOSIG
Read More >>>

UBBG

METAR text:UBBG 311200Z 07002KT 9999 NSC 19/07 Q1021 R30/CLRD70 NOSIG
Read More >>>

UBBN

METAR text:UBBN 311200Z VRB04KT 9999 NSC 18/M01 Q1021 R14R/CLRD60 NOSIG RMK G/O QFE691
Read More >>>

UBBY

METAR text:UBBY 311200Z VRB03KT 9999 NSC 19/07 Q1023 R33/CLRD70 NOSIG RMK G/O
Read More >>>

UBBL

METAR text:UBBL 311200Z 14007KT 9999 NSC 18/14 Q1022 R33/CLRD70 NOSIG RMK MT OP
Read More >>>

UDYZ

METAR text:UDYZ 311200Z VRB01MPS 9999 SKC 19/M02 Q1022 R09/000070 NOSIG
Read More >>>

CUSTOMERS